sensor_id;sensor_type;location;lat;lon;timestamp;P1;durP1;ratioP1;P2;durP2;ratioP2
55483;SDS011;41345;51.704;5.146;2023-02-28T00:03:21;13.77;;;12.27;;
55483;SDS011;41345;51.704;5.146;2023-02-28T00:08:21;16.13;;;12.88;;
55483;SDS011;41345;51.704;5.146;2023-02-28T00:13:21;17.23;;;13.00;;
55483;SDS011;41345;51.704;5.146;2023-02-28T00:18:22;15.35;;;13.10;;
55483;SDS011;41345;51.704;5.146;2023-02-28T00:23:22;12.88;;;11.35;;
55483;SDS011;41345;51.704;5.146;2023-02-28T00:28:22;13.45;;;11.73;;
55483;SDS011;41345;51.704;5.146;2023-02-28T00:33:23;10.98;;;9.77;;
55483;SDS011;41345;51.704;5.146;2023-02-28T00:38:23;13.68;;;11.10;;
55483;SDS011;41345;51.704;5.146;2023-02-28T00:43:23;13.63;;;12.35;;
55483;SDS011;41345;51.704;5.146;2023-02-28T00:48:24;13.43;;;10.80;;
55483;SDS011;41345;51.704;5.146;2023-02-28T00:53:24;14.48;;;13.05;;
55483;SDS011;41345;51.704;5.146;2023-02-28T00:58:24;13.57;;;12.27;;
55483;SDS011;41345;51.704;5.146;2023-02-28T01:03:24;14.63;;;13.32;;
55483;SDS011;41345;51.704;5.146;2023-02-28T01:08:25;17.52;;;14.38;;
55483;SDS011;41345;51.704;5.146;2023-02-28T01:13:25;15.07;;;13.75;;
55483;SDS011;41345;51.704;5.146;2023-02-28T01:18:26;15.95;;;14.45;;
55483;SDS011;41345;51.704;5.146;2023-02-28T01:23:26;16.25;;;14.65;;
55483;SDS011;41345;51.704;5.146;2023-02-28T01:28:26;15.02;;;13.52;;
55483;SDS011;41345;51.704;5.146;2023-02-28T01:33:27;13.60;;;12.23;;
55483;SDS011;41345;51.704;5.146;2023-02-28T01:38:28;15.05;;;13.05;;
55483;SDS011;41345;51.704;5.146;2023-02-28T01:43:30;16.75;;;15.23;;
55483;SDS011;41345;51.704;5.146;2023-02-28T01:48:31;11.63;;;10.43;;
55483;SDS011;41345;51.704;5.146;2023-02-28T01:53:34;13.30;;;10.15;;
55483;SDS011;41345;51.704;5.146;2023-02-28T01:58:34;14.63;;;10.95;;
55483;SDS011;41345;51.704;5.146;2023-02-28T02:03:35;14.30;;;12.82;;
55483;SDS011;41345;51.704;5.146;2023-02-28T02:08:36;13.60;;;10.68;;
55483;SDS011;41345;51.704;5.146;2023-02-28T02:18:43;12.63;;;10.80;;
55483;SDS011;41345;51.704;5.146;2023-02-28T02:29:06;15.40;;;13.90;;
55483;SDS011;41345;51.704;5.146;2023-02-28T02:39:28;14.07;;;12.77;;
55483;SDS011;41345;51.704;5.146;2023-02-28T02:49:32;15.80;;;14.18;;
55483;SDS011;41345;51.704;5.146;2023-02-28T02:54:36;16.08;;;14.18;;
55483;SDS011;41345;51.704;5.146;2023-02-28T03:04:42;14.68;;;13.23;;
55483;SDS011;41345;51.704;5.146;2023-02-28T03:09:50;15.18;;;13.73;;
55483;SDS011;41345;51.704;5.146;2023-02-28T03:20:16;14.15;;;12.82;;
55483;SDS011;41345;51.704;5.146;2023-02-28T03:30:24;14.82;;;13.43;;
55483;SDS011;41345;51.704;5.146;2023-02-28T03:35:28;12.88;;;11.68;;
55483;SDS011;41345;51.704;5.146;2023-02-28T03:40:31;16.40;;;13.07;;
55483;SDS011;41345;51.704;5.146;2023-02-28T03:45:33;17.23;;;14.63;;
55483;SDS011;41345;51.704;5.146;2023-02-28T03:50:36;15.73;;;14.30;;
55483;SDS011;41345;51.704;5.146;2023-02-28T03:55:37;16.58;;;14.95;;
55483;SDS011;41345;51.704;5.146;2023-02-28T04:00:40;16.10;;;14.48;;
55483;SDS011;41345;51.704;5.146;2023-02-28T04:06:01;15.63;;;13.65;;
55483;SDS011;41345;51.704;5.146;2023-02-28T04:11:03;15.52;;;13.40;;
55483;SDS011;41345;51.704;5.146;2023-02-28T04:16:09;17.23;;;15.63;;
55483;SDS011;41345;51.704;5.146;2023-02-28T04:21:12;16.17;;;14.68;;
55483;SDS011;41345;51.704;5.146;2023-02-28T04:26:13;16.15;;;14.55;;
55483;SDS011;41345;51.704;5.146;2023-02-28T04:31:13;17.15;;;15.35;;
55483;SDS011;41345;51.704;5.146;2023-02-28T04:36:13;14.90;;;13.38;;
55483;SDS011;41345;51.704;5.146;2023-02-28T04:41:14;19.75;;;15.52;;
55483;SDS011;41345;51.704;5.146;2023-02-28T04:46:15;16.13;;;14.63;;
55483;SDS011;41345;51.704;5.146;2023-02-28T04:51:15;16.80;;;15.00;;
55483;SDS011;41345;51.704;5.146;2023-02-28T04:56:17;17.63;;;15.82;;
55483;SDS011;41345;51.704;5.146;2023-02-28T05:06:17;13.98;;;12.57;;
55483;SDS011;41345;51.704;5.146;2023-02-28T05:11:28;15.52;;;13.93;;
55483;SDS011;41345;51.704;5.146;2023-02-28T05:16:33;14.50;;;13.13;;
55483;SDS011;41345;51.704;5.146;2023-02-28T05:21:34;13.95;;;12.25;;
55483;SDS011;41345;51.704;5.146;2023-02-28T05:26:35;13.23;;;11.57;;
55483;SDS011;41345;51.704;5.146;2023-02-28T05:31:36;12.75;;;11.40;;
55483;SDS011;41345;51.704;5.146;2023-02-28T05:36:36;13.30;;;11.32;;
55483;SDS011;41345;51.704;5.146;2023-02-28T05:41:38;12.93;;;10.40;;
55483;SDS011;41345;51.704;5.146;2023-02-28T05:46:38;13.93;;;11.32;;
55483;SDS011;41345;51.704;5.146;2023-02-28T05:51:38;11.95;;;10.43;;
55483;SDS011;41345;51.704;5.146;2023-02-28T05:56:39;13.07;;;11.77;;
55483;SDS011;41345;51.704;5.146;2023-02-28T06:01:41;11.30;;;10.10;;
55483;SDS011;41345;51.704;5.146;2023-02-28T06:06:42;11.02;;;9.75;;
55483;SDS011;41345;51.704;5.146;2023-02-28T06:11:42;12.15;;;10.95;;
55483;SDS011;41345;51.704;5.146;2023-02-28T06:16:43;11.47;;;9.80;;
55483;SDS011;41345;51.704;5.146;2023-02-28T06:21:43;13.13;;;10.57;;
55483;SDS011;41345;51.704;5.146;2023-02-28T06:26:43;13.30;;;11.88;;
55483;SDS011;41345;51.704;5.146;2023-02-28T06:31:44;12.70;;;9.82;;
55483;SDS011;41345;51.704;5.146;2023-02-28T06:36:45;10.88;;;8.60;;
55483;SDS011;41345;51.704;5.146;2023-02-28T06:41:45;12.45;;;9.40;;
55483;SDS011;41345;51.704;5.146;2023-02-28T06:46:47;11.25;;;8.98;;
55483;SDS011;41345;51.704;5.146;2023-02-28T06:51:48;11.73;;;9.85;;
55483;SDS011;41345;51.704;5.146;2023-02-28T06:56:48;11.82;;;9.88;;
55483;SDS011;41345;51.704;5.146;2023-02-28T07:01:48;11.03;;;9.80;;
55483;SDS011;41345;51.704;5.146;2023-02-28T07:06:49;10.35;;;9.30;;
55483;SDS011;41345;51.704;5.146;2023-02-28T07:11:49;11.43;;;9.68;;
55483;SDS011;41345;51.704;5.146;2023-02-28T07:16:49;14.50;;;9.93;;
55483;SDS011;41345;51.704;5.146;2023-02-28T07:21:50;10.85;;;9.02;;
55483;SDS011;41345;51.704;5.146;2023-02-28T07:26:50;12.60;;;9.77;;
55483;SDS011;41345;51.704;5.146;2023-02-28T07:31:50;10.50;;;9.02;;
55483;SDS011;41345;51.704;5.146;2023-02-28T07:36:53;13.18;;;8.90;;
55483;SDS011;41345;51.704;5.146;2023-02-28T07:41:53;9.88;;;8.38;;
55483;SDS011;41345;51.704;5.146;2023-02-28T07:46:54;10.68;;;7.88;;
55483;SDS011;41345;51.704;5.146;2023-02-28T07:51:54;10.17;;;9.07;;
55483;SDS011;41345;51.704;5.146;2023-02-28T07:56:54;10.13;;;7.93;;
55483;SDS011;41345;51.704;5.146;2023-02-28T08:01:56;7.85;;;6.13;;
55483;SDS011;41345;51.704;5.146;2023-02-28T08:06:56;7.68;;;5.28;;
55483;SDS011;41345;51.704;5.146;2023-02-28T08:11:57;7.10;;;5.53;;
55483;SDS011;41345;51.704;5.146;2023-02-28T08:16:57;7.32;;;4.63;;
55483;SDS011;41345;51.704;5.146;2023-02-28T08:21:57;6.88;;;4.18;;
55483;SDS011;41345;51.704;5.146;2023-02-28T08:26:58;8.45;;;3.55;;
55483;SDS011;41345;51.704;5.146;2023-02-28T08:31:58;4.55;;;2.45;;
55483;SDS011;41345;51.704;5.146;2023-02-28T08:36:58;4.45;;;2.47;;
55483;SDS011;41345;51.704;5.146;2023-02-28T08:41:59;5.50;;;2.35;;
55483;SDS011;41345;51.704;5.146;2023-02-28T08:46:59;5.72;;;2.00;;
55483;SDS011;41345;51.704;5.146;2023-02-28T08:51:59;4.60;;;1.73;;
55483;SDS011;41345;51.704;5.146;2023-02-28T08:57:00;3.47;;;1.70;;
55483;SDS011;41345;51.704;5.146;2023-02-28T09:02:00;3.10;;;1.55;;
55483;SDS011;41345;51.704;5.146;2023-02-28T09:07:00;3.53;;;1.50;;
55483;SDS011;41345;51.704;5.146;2023-02-28T09:12:01;2.58;;;1.65;;
55483;SDS011;41345;51.704;5.146;2023-02-28T09:17:02;3.67;;;2.08;;
55483;SDS011;41345;51.704;5.146;2023-02-28T09:22:02;6.10;;;2.60;;
55483;SDS011;41345;51.704;5.146;2023-02-28T09:27:02;6.10;;;2.25;;
55483;SDS011;41345;51.704;5.146;2023-02-28T09:32:03;4.97;;;1.92;;
55483;SDS011;41345;51.704;5.146;2023-02-28T09:37:05;3.78;;;2.45;;
55483;SDS011;41345;51.704;5.146;2023-02-28T09:42:05;5.43;;;1.98;;
55483;SDS011;41345;51.704;5.146;2023-02-28T09:47:14;2.20;;;1.60;;
55483;SDS011;41345;51.704;5.146;2023-02-28T09:52:17;3.33;;;1.92;;
55483;SDS011;41345;51.704;5.146;2023-02-28T09:57:37;3.93;;;1.83;;
55483;SDS011;41345;51.704;5.146;2023-02-28T10:08:03;4.13;;;1.88;;
55483;SDS011;41345;51.704;5.146;2023-02-28T10:18:27;4.00;;;2.20;;
55483;SDS011;41345;51.704;5.146;2023-02-28T10:23:30;3.75;;;2.10;;
55483;SDS011;41345;51.704;5.146;2023-02-28T10:28:31;3.67;;;1.52;;
55483;SDS011;41345;51.704;5.146;2023-02-28T10:33:32;2.85;;;1.58;;
55483;SDS011;41345;51.704;5.146;2023-02-28T10:38:35;2.78;;;1.75;;
55483;SDS011;41345;51.704;5.146;2023-02-28T10:43:36;2.88;;;1.70;;
55483;SDS011;41345;51.704;5.146;2023-02-28T10:48:38;3.13;;;1.52;;
55483;SDS011;41345;51.704;5.146;2023-02-28T10:53:45;3.72;;;1.88;;
55483;SDS011;41345;51.704;5.146;2023-02-28T11:03:48;3.95;;;1.80;;
55483;SDS011;41345;51.704;5.146;2023-02-28T11:08:50;3.78;;;1.80;;
55483;SDS011;41345;51.704;5.146;2023-02-28T11:13:52;3.38;;;1.90;;
55483;SDS011;41345;51.704;5.146;2023-02-28T11:18:54;5.85;;;2.30;;
55483;SDS011;41345;51.704;5.146;2023-02-28T11:23:57;3.28;;;1.90;;
55483;SDS011;41345;51.704;5.146;2023-02-28T11:29:03;6.35;;;1.92;;
55483;SDS011;41345;51.704;5.146;2023-02-28T11:34:23;3.53;;;1.90;;
55483;SDS011;41345;51.704;5.146;2023-02-28T11:39:23;2.55;;;1.80;;
55483;SDS011;41345;51.704;5.146;2023-02-28T12:05:10;2.85;;;1.85;;
55483;SDS011;41345;51.704;5.146;2023-02-28T12:20:16;3.10;;;1.77;;
55483;SDS011;41345;51.704;5.146;2023-02-28T12:30:22;5.68;;;1.90;;
55483;SDS011;41345;51.704;5.146;2023-02-28T12:35:28;3.15;;;2.13;;
55483;SDS011;41345;51.704;5.146;2023-02-28T12:40:48;3.97;;;2.20;;
55483;SDS011;41345;51.704;5.146;2023-02-28T12:45:54;3.78;;;2.10;;
55483;SDS011;41345;51.704;5.146;2023-02-28T12:50:55;3.90;;;2.10;;
55483;SDS011;41345;51.704;5.146;2023-02-28T12:56:03;4.07;;;2.17;;
55483;SDS011;41345;51.704;5.146;2023-02-28T13:01:14;3.42;;;2.00;;
55483;SDS011;41345;51.704;5.146;2023-02-28T13:11:51;3.92;;;2.17;;
55483;SDS011;41345;51.704;5.146;2023-02-28T13:22:01;5.03;;;2.20;;
55483;SDS011;41345;51.704;5.146;2023-02-28T13:47:30;5.15;;;2.50;;
55483;SDS011;41345;51.704;5.146;2023-02-28T13:52:31;3.63;;;2.08;;
55483;SDS011;41345;51.704;5.146;2023-02-28T14:07:48;4.05;;;2.15;;
55483;SDS011;41345;51.704;5.146;2023-02-28T14:12:53;5.15;;;2.30;;
55483;SDS011;41345;51.704;5.146;2023-02-28T14:17:55;4.55;;;2.40;;
55483;SDS011;41345;51.704;5.146;2023-02-28T14:23:01;4.35;;;2.30;;
55483;SDS011;41345;51.704;5.146;2023-02-28T14:38:20;4.07;;;2.33;;
55483;SDS011;41345;51.704;5.146;2023-02-28T14:43:25;4.38;;;2.55;;
55483;SDS011;41345;51.704;5.146;2023-02-28T14:48:26;4.93;;;2.65;;
55483;SDS011;41345;51.704;5.146;2023-02-28T14:53:30;4.85;;;2.60;;
55483;SDS011;41345;51.704;5.146;2023-02-28T14:58:35;5.40;;;2.35;;
55483;SDS011;41345;51.704;5.146;2023-02-28T15:03:36;4.55;;;2.20;;
55483;SDS011;41345;51.704;5.146;2023-02-28T15:08:37;4.45;;;2.60;;
55483;SDS011;41345;51.704;5.146;2023-02-28T15:23:49;4.32;;;2.20;;
55483;SDS011;41345;51.704;5.146;2023-02-28T15:28:52;4.93;;;1.92;;
55483;SDS011;41345;51.704;5.146;2023-02-28T15:33:58;5.63;;;2.25;;
55483;SDS011;41345;51.704;5.146;2023-02-28T15:39:03;5.13;;;2.33;;
55483;SDS011;41345;51.704;5.146;2023-02-28T15:44:36;4.00;;;2.20;;
55483;SDS011;41345;51.704;5.146;2023-02-28T15:49:34;7.30;;;2.25;;
55483;SDS011;41345;51.704;5.146;2023-02-28T15:54:37;4.32;;;2.47;;
55483;SDS011;41345;51.704;5.146;2023-02-28T15:59:37;4.10;;;2.03;;
55483;SDS011;41345;51.704;5.146;2023-02-28T16:04:54;4.93;;;2.17;;
55483;SDS011;41345;51.704;5.146;2023-02-28T16:09:54;4.93;;;2.60;;
55483;SDS011;41345;51.704;5.146;2023-02-28T16:14:55;4.40;;;2.08;;
55483;SDS011;41345;51.704;5.146;2023-02-28T16:19:56;5.65;;;2.40;;
55483;SDS011;41345;51.704;5.146;2023-02-28T16:24:58;3.88;;;2.10;;
55483;SDS011;41345;51.704;5.146;2023-02-28T16:29:58;4.13;;;2.40;;
55483;SDS011;41345;51.704;5.146;2023-02-28T16:34:58;5.10;;;2.30;;
55483;SDS011;41345;51.704;5.146;2023-02-28T16:39:59;4.55;;;2.42;;
55483;SDS011;41345;51.704;5.146;2023-02-28T16:44:59;5.03;;;2.40;;
55483;SDS011;41345;51.704;5.146;2023-02-28T16:49:59;6.57;;;2.53;;
55483;SDS011;41345;51.704;5.146;2023-02-28T16:55:00;7.47;;;2.40;;
55483;SDS011;41345;51.704;5.146;2023-02-28T17:00:00;4.30;;;2.40;;
55483;SDS011;41345;51.704;5.146;2023-02-28T17:05:00;4.97;;;2.78;;
55483;SDS011;41345;51.704;5.146;2023-02-28T17:10:01;4.78;;;2.60;;
55483;SDS011;41345;51.704;5.146;2023-02-28T17:15:09;4.72;;;2.25;;
55483;SDS011;41345;51.704;5.146;2023-02-28T17:20:16;5.18;;;2.45;;
55483;SDS011;41345;51.704;5.146;2023-02-28T17:25:17;4.70;;;2.50;;
55483;SDS011;41345;51.704;5.146;2023-02-28T17:30:21;6.90;;;2.65;;
55483;SDS011;41345;51.704;5.146;2023-02-28T17:35:23;5.18;;;2.70;;
55483;SDS011;41345;51.704;5.146;2023-02-28T17:40:23;6.10;;;3.20;;
55483;SDS011;41345;51.704;5.146;2023-02-28T17:45:24;4.18;;;2.63;;
55483;SDS011;41345;51.704;5.146;2023-02-28T17:50:24;4.65;;;2.60;;
55483;SDS011;41345;51.704;5.146;2023-02-28T17:55:24;5.50;;;3.00;;
55483;SDS011;41345;51.704;5.146;2023-02-28T18:00:25;5.25;;;3.05;;
55483;SDS011;41345;51.704;5.146;2023-02-28T18:05:25;6.95;;;3.08;;
55483;SDS011;41345;51.704;5.146;2023-02-28T18:10:26;6.18;;;3.58;;
55483;SDS011;41345;51.704;5.146;2023-02-28T18:15:27;5.95;;;3.03;;
55483;SDS011;41345;51.704;5.146;2023-02-28T18:20:27;9.82;;;3.40;;
55483;SDS011;41345;51.704;5.146;2023-02-28T18:25:28;6.50;;;3.53;;
55483;SDS011;41345;51.704;5.146;2023-02-28T18:30:30;6.05;;;3.08;;
55483;SDS011;41345;51.704;5.146;2023-02-28T18:35:30;7.10;;;3.53;;
55483;SDS011;41345;51.704;5.146;2023-02-28T18:40:34;6.85;;;3.33;;
55483;SDS011;41345;51.704;5.146;2023-02-28T18:45:35;5.20;;;3.45;;
55483;SDS011;41345;51.704;5.146;2023-02-28T18:50:38;16.63;;;3.45;;
55483;SDS011;41345;51.704;5.146;2023-02-28T18:55:38;5.57;;;3.45;;
55483;SDS011;41345;51.704;5.146;2023-02-28T19:00:39;6.32;;;3.47;;
55483;SDS011;41345;51.704;5.146;2023-02-28T19:05:39;6.95;;;3.75;;
55483;SDS011;41345;51.704;5.146;2023-02-28T19:10:40;7.17;;;3.80;;
55483;SDS011;41345;51.704;5.146;2023-02-28T19:15:40;8.30;;;4.40;;
55483;SDS011;41345;51.704;5.146;2023-02-28T19:20:40;7.50;;;4.40;;
55483;SDS011;41345;51.704;5.146;2023-02-28T19:25:41;7.85;;;3.67;;
55483;SDS011;41345;51.704;5.146;2023-02-28T19:30:45;7.82;;;4.13;;
55483;SDS011;41345;51.704;5.146;2023-02-28T19:35:45;8.37;;;4.10;;
55483;SDS011;41345;51.704;5.146;2023-02-28T19:40:46;7.45;;;3.92;;
55483;SDS011;41345;51.704;5.146;2023-02-28T19:45:46;10.13;;;5.00;;
55483;SDS011;41345;51.704;5.146;2023-02-28T19:50:47;8.68;;;5.15;;
55483;SDS011;41345;51.704;5.146;2023-02-28T19:55:48;9.48;;;4.70;;
55483;SDS011;41345;51.704;5.146;2023-02-28T20:00:48;8.38;;;4.95;;
55483;SDS011;41345;51.704;5.146;2023-02-28T20:05:57;8.80;;;5.40;;
55483;SDS011;41345;51.704;5.146;2023-02-28T20:11:02;9.10;;;6.10;;
55483;SDS011;41345;51.704;5.146;2023-02-28T20:16:03;11.98;;;7.25;;
55483;SDS011;41345;51.704;5.146;2023-02-28T20:21:08;10.02;;;6.60;;
55483;SDS011;41345;51.704;5.146;2023-02-28T20:26:08;13.82;;;6.97;;
55483;SDS011;41345;51.704;5.146;2023-02-28T20:31:09;10.95;;;7.28;;
55483;SDS011;41345;51.704;5.146;2023-02-28T20:36:10;12.93;;;8.35;;
55483;SDS011;41345;51.704;5.146;2023-02-28T20:41:11;12.57;;;7.40;;
55483;SDS011;41345;51.704;5.146;2023-02-28T20:46:12;12.98;;;8.02;;
55483;SDS011;41345;51.704;5.146;2023-02-28T20:51:12;12.10;;;7.28;;
55483;SDS011;41345;51.704;5.146;2023-02-28T20:56:14;10.10;;;6.90;;
55483;SDS011;41345;51.704;5.146;2023-02-28T21:01:16;13.70;;;8.50;;
55483;SDS011;41345;51.704;5.146;2023-02-28T21:06:18;11.40;;;7.18;;
55483;SDS011;41345;51.704;5.146;2023-02-28T21:11:23;11.07;;;6.72;;
55483;SDS011;41345;51.704;5.146;2023-02-28T21:16:24;12.73;;;8.15;;
55483;SDS011;41345;51.704;5.146;2023-02-28T21:21:25;14.13;;;9.18;;
55483;SDS011;41345;51.704;5.146;2023-02-28T21:26:26;16.85;;;8.98;;
55483;SDS011;41345;51.704;5.146;2023-02-28T21:31:28;10.93;;;7.32;;
55483;SDS011;41345;51.704;5.146;2023-02-28T21:36:30;13.30;;;8.43;;
55483;SDS011;41345;51.704;5.146;2023-02-28T21:46:34;12.68;;;8.00;;
55483;SDS011;41345;51.704;5.146;2023-02-28T21:51:34;11.77;;;7.50;;
55483;SDS011;41345;51.704;5.146;2023-02-28T21:56:35;12.82;;;7.28;;
55483;SDS011;41345;51.704;5.146;2023-02-28T22:01:40;12.05;;;7.15;;
55483;SDS011;41345;51.704;5.146;2023-02-28T22:06:43;12.77;;;8.45;;
55483;SDS011;41345;51.704;5.146;2023-02-28T22:11:43;12.50;;;7.70;;
55483;SDS011;41345;51.704;5.146;2023-02-28T22:16:44;12.30;;;7.28;;
55483;SDS011;41345;51.704;5.146;2023-02-28T22:21:44;13.88;;;8.63;;
55483;SDS011;41345;51.704;5.146;2023-02-28T22:26:47;13.05;;;7.70;;
55483;SDS011;41345;51.704;5.146;2023-02-28T22:31:47;13.75;;;7.75;;
55483;SDS011;41345;51.704;5.146;2023-02-28T22:36:47;12.00;;;8.07;;
55483;SDS011;41345;51.704;5.146;2023-02-28T22:41:48;12.98;;;8.50;;
55483;SDS011;41345;51.704;5.146;2023-02-28T22:46:52;11.48;;;7.70;;
55483;SDS011;41345;51.704;5.146;2023-02-28T22:51:52;15.63;;;10.07;;
55483;SDS011;41345;51.704;5.146;2023-02-28T22:56:53;13.10;;;8.80;;
55483;SDS011;41345;51.704;5.146;2023-02-28T23:01:53;15.20;;;9.13;;
55483;SDS011;41345;51.704;5.146;2023-02-28T23:06:53;14.30;;;9.38;;
55483;SDS011;41345;51.704;5.146;2023-02-28T23:11:54;16.88;;;9.52;;
55483;SDS011;41345;51.704;5.146;2023-02-28T23:16:54;14.70;;;9.50;;
55483;SDS011;41345;51.704;5.146;2023-02-28T23:21:55;15.00;;;10.30;;
55483;SDS011;41345;51.704;5.146;2023-02-28T23:26:56;14.15;;;8.93;;
55483;SDS011;41345;51.704;5.146;2023-02-28T23:31:57;13.77;;;8.85;;
55483;SDS011;41345;51.704;5.146;2023-02-28T23:36:58;14.50;;;8.93;;
55483;SDS011;41345;51.704;5.146;2023-02-28T23:41:58;12.52;;;8.00;;
55483;SDS011;41345;51.704;5.146;2023-02-28T23:46:59;13.35;;;9.35;;
55483;SDS011;41345;51.704;5.146;2023-02-28T23:52:00;15.30;;;10.48;;
55483;SDS011;41345;51.704;5.146;2023-02-28T23:57:00;16.65;;;10.13;;
